createdAt,value
2019-03-27T00:02:11.960Z,4.00
2019-03-27T00:04:40.547Z,4.00
2019-03-27T00:07:09.107Z,3.73
2019-03-27T00:09:37.691Z,3.00
2019-03-27T00:12:06.250Z,2.60
2019-03-27T00:14:34.848Z,3.40
2019-03-27T00:17:03.546Z,3.07
2019-03-27T00:19:32.127Z,3.13
2019-03-27T00:22:00.673Z,2.60
2019-03-27T00:24:29.255Z,2.63
2019-03-27T00:26:57.811Z,2.87
2019-03-27T00:29:26.395Z,2.83
2019-03-27T00:31:54.953Z,2.70
2019-03-27T00:34:23.543Z,3.40
2019-03-27T00:36:52.112Z,2.77
2019-03-27T00:39:20.775Z,2.20
2019-03-27T00:41:49.327Z,2.20
2019-03-27T00:44:17.916Z,2.20
2019-03-27T00:46:46.470Z,2.10
2019-03-27T00:49:15.047Z,2.37
2019-03-27T00:51:43.611Z,2.30
2019-03-27T00:54:12.195Z,2.33
2019-03-27T00:56:40.683Z,2.20
2019-03-27T00:59:09.263Z,2.60
2019-03-27T01:01:37.824Z,2.50
2019-03-27T01:04:06.411Z,2.17
2019-03-27T01:06:34.965Z,2.93
2019-03-27T01:09:04.700Z,2.20
2019-03-27T01:11:33.264Z,2.43
2019-03-27T01:14:01.837Z,2.37
2019-03-27T01:16:30.403Z,2.30
2019-03-27T01:18:58.985Z,2.40
2019-03-27T01:21:27.535Z,2.40
2019-03-27T01:23:56.195Z,2.40
2019-03-27T01:26:24.752Z,2.27
2019-03-27T01:28:53.335Z,2.53
2019-03-27T01:31:21.900Z,2.43
2019-03-27T01:33:50.479Z,2.50
2019-03-27T01:36:19.023Z,2.23
2019-03-27T01:38:47.585Z,2.73
2019-03-27T01:41:16.234Z,2.33
2019-03-27T01:43:44.791Z,2.43
2019-03-27T01:46:13.379Z,2.40
2019-03-27T01:48:41.927Z,2.20
2019-03-27T01:51:10.585Z,2.37
2019-03-27T01:53:39.123Z,2.83
2019-03-27T01:56:07.711Z,2.40
2019-03-27T01:58:36.271Z,3.10
2019-03-27T02:01:05.087Z,2.63
2019-03-27T02:03:33.653Z,2.90
2019-03-27T02:06:02.227Z,3.00
2019-03-27T02:08:30.784Z,3.23
2019-03-27T02:10:59.371Z,2.90
2019-03-27T02:13:27.935Z,2.83
2019-03-27T02:16:06.330Z,3.17
2019-03-27T02:18:26.719Z,3.20
2019-03-27T02:20:55.303Z,2.87
2019-03-27T02:23:23.864Z,3.00
2019-03-27T02:25:52.454Z,2.77
2019-03-27T02:28:20.999Z,2.60
2019-03-27T02:30:49.588Z,2.77
2019-03-27T02:33:18.149Z,2.70
2019-03-27T02:35:46.735Z,2.80
2019-03-27T02:38:15.392Z,2.60
2019-03-27T02:40:43.977Z,3.20
2019-03-27T02:43:12.531Z,2.80
2019-03-27T02:45:41.218Z,2.90
2019-03-27T02:48:13.697Z,3.53
2019-03-27T02:50:40.156Z,3.20
2019-03-27T02:53:08.645Z,3.27
2019-03-27T02:55:37.226Z,3.30
2019-03-27T02:58:05.776Z,3.50
2019-03-27T03:00:34.809Z,3.60
2019-03-27T03:03:03.360Z,3.40
2019-03-27T03:05:31.940Z,3.27
2019-03-27T03:08:00.496Z,3.17
2019-03-27T03:10:29.089Z,3.20
2019-03-27T03:13:16.979Z,3.50
2019-03-27T03:15:45.559Z,3.20
2019-03-27T03:18:14.151Z,3.53
2019-03-27T03:20:42.714Z,3.77
2019-03-27T03:23:11.267Z,3.67
2019-03-27T03:25:39.858Z,3.70
2019-03-27T03:28:08.420Z,3.73
2019-03-27T03:30:37.004Z,3.60
2019-03-27T03:33:05.583Z,3.97
2019-03-27T03:35:34.153Z,3.87
2019-03-27T03:38:02.726Z,4.20
2019-03-27T03:40:31.291Z,4.13
2019-03-27T03:42:59.916Z,3.90
2019-03-27T03:45:28.503Z,3.90
2019-03-27T03:47:57.064Z,4.23
2019-03-27T03:50:40.036Z,4.67
2019-03-27T03:53:12.441Z,4.40
2019-03-27T03:55:41.657Z,4.10
2019-03-27T03:58:12.255Z,4.47
2019-03-27T04:00:41.440Z,4.23
2019-03-27T04:03:10.867Z,4.50
2019-03-27T04:05:39.430Z,4.70
2019-03-27T04:08:08.010Z,4.50
2019-03-27T04:10:36.570Z,4.77
2019-03-27T04:13:05.258Z,4.67
2019-03-27T04:15:33.805Z,4.53
2019-03-27T04:18:02.415Z,4.67
2019-03-27T04:20:30.980Z,4.60
2019-03-27T04:22:59.531Z,4.90
2019-03-27T04:25:28.192Z,4.47
2019-03-27T04:27:56.753Z,5.00
2019-03-27T04:30:25.413Z,4.67
2019-03-27T04:32:54.126Z,4.97
2019-03-27T04:35:22.712Z,4.73
2019-03-27T04:37:51.276Z,5.00
2019-03-27T04:40:19.871Z,4.80
2019-03-27T04:42:48.490Z,5.00
2019-03-27T04:45:17.927Z,4.93
2019-03-27T04:47:46.479Z,5.13
2019-03-27T04:50:15.151Z,5.30
2019-03-27T04:52:43.708Z,5.07
2019-03-27T04:55:12.427Z,5.13
2019-03-27T04:57:40.998Z,5.30
2019-03-27T05:00:10.411Z,5.07
2019-03-27T05:02:38.973Z,5.37
2019-03-27T05:05:07.963Z,5.80
2019-03-27T05:07:36.519Z,5.67
2019-03-27T05:10:05.956Z,6.70
2019-03-27T05:12:34.519Z,7.20
2019-03-27T05:15:03.161Z,7.03
2019-03-27T05:17:44.760Z,8.27
2019-03-27T05:20:01.961Z,8.87
2019-03-27T05:22:30.621Z,8.57
2019-03-27T05:24:59.181Z,8.80
2019-03-27T05:27:27.786Z,9.17
2019-03-27T05:29:56.342Z,9.07
2019-03-27T05:32:24.931Z,9.70
2019-03-27T05:34:53.487Z,8.87
2019-03-27T05:37:22.079Z,8.43
2019-03-27T05:39:50.643Z,8.87
2019-03-27T05:42:19.252Z,9.13
2019-03-27T05:44:47.815Z,9.17
2019-03-27T05:47:16.416Z,9.70
2019-03-27T05:49:44.980Z,9.47
2019-03-27T05:52:13.580Z,9.93
2019-03-27T05:54:42.143Z,9.37
2019-03-27T05:57:10.750Z,10.83
2019-03-27T05:59:39.309Z,11.20
2019-03-27T06:02:07.911Z,11.40
2019-03-27T06:04:36.473Z,11.47
2019-03-27T06:07:05.063Z,11.77
2019-03-27T06:09:33.619Z,10.97
2019-03-27T06:12:02.327Z,10.57
2019-03-27T06:14:30.867Z,12.17
2019-03-27T06:16:59.463Z,11.10
2019-03-27T06:19:28.015Z,10.50
2019-03-27T06:21:56.611Z,10.50
2019-03-27T06:24:25.211Z,10.57
2019-03-27T06:26:53.802Z,10.33
2019-03-27T06:29:23.011Z,11.80
2019-03-27T06:31:51.795Z,10.73
2019-03-27T06:34:20.361Z,10.53
2019-03-27T06:36:48.966Z,10.53
2019-03-27T06:39:17.531Z,11.67
2019-03-27T06:41:46.093Z,11.63
2019-03-27T06:44:14.685Z,12.47
2019-03-27T06:46:43.254Z,12.57
2019-03-27T06:49:11.841Z,12.03
2019-03-27T06:51:40.713Z,11.83
2019-03-27T06:54:09.825Z,11.50
2019-03-27T06:56:38.399Z,12.70
2019-03-27T06:59:06.987Z,12.07
2019-03-27T07:01:35.567Z,11.77
2019-03-27T07:04:10.488Z,11.80
2019-03-27T07:06:34.388Z,12.03
2019-03-27T07:09:04.243Z,10.83
2019-03-27T07:11:32.807Z,11.50
2019-03-27T07:14:01.470Z,11.10
2019-03-27T07:16:30.073Z,10.77
2019-03-27T07:18:59.141Z,11.07
2019-03-27T07:21:27.700Z,10.47
2019-03-27T07:23:56.293Z,11.40
2019-03-27T07:26:24.851Z,9.93
2019-03-27T07:28:53.447Z,10.93
2019-03-27T07:31:22.016Z,10.07
2019-03-27T07:33:50.617Z,9.10
2019-03-27T07:36:19.191Z,9.17
2019-03-27T07:38:47.795Z,8.93
2019-03-27T07:41:16.369Z,8.33
2019-03-27T07:43:45.023Z,8.97
2019-03-27T07:46:13.659Z,7.00
2019-03-27T07:48:53.326Z,7.17
2019-03-27T07:51:12.453Z,7.33
2019-03-27T07:53:41.055Z,7.90
2019-03-27T07:56:09.639Z,7.20
2019-03-27T07:58:38.249Z,7.03
2019-03-27T08:01:06.819Z,6.60
2019-03-27T08:03:35.412Z,7.47
2019-03-27T08:06:04.049Z,7.03
2019-03-27T08:08:32.600Z,6.20
2019-03-27T08:11:01.200Z,7.00
2019-03-27T08:13:29.762Z,6.80
2019-03-27T08:15:58.345Z,7.10
2019-03-27T08:18:26.893Z,7.03
2019-03-27T08:20:55.481Z,6.73
2019-03-27T08:23:24.048Z,6.90
2019-03-27T08:25:52.632Z,7.13
2019-03-27T08:28:21.188Z,7.33
2019-03-27T08:30:49.773Z,7.30
2019-03-27T08:33:18.336Z,7.10
2019-03-27T08:35:46.925Z,6.87
2019-03-27T08:38:15.489Z,7.47
2019-03-27T08:40:44.083Z,6.80
2019-03-27T08:43:21.228Z,7.33
2019-03-27T08:45:42.871Z,6.97
2019-03-27T08:48:11.566Z,6.80
2019-03-27T08:50:40.095Z,7.27
2019-03-27T08:53:08.655Z,7.17
2019-03-27T08:55:37.247Z,7.50
2019-03-27T08:58:05.809Z,8.20
2019-03-27T09:00:48.888Z,7.47
2019-03-27T09:03:18.188Z,8.07
2019-03-27T09:05:47.332Z,7.57
2019-03-27T09:08:16.025Z,7.83
2019-03-27T09:10:44.691Z,7.37
2019-03-27T09:13:13.252Z,7.43
2019-03-27T09:15:41.839Z,7.20
2019-03-27T09:18:10.398Z,7.50
2019-03-27T09:20:38.989Z,7.97
2019-03-27T09:23:07.556Z,7.80
2019-03-27T09:25:36.143Z,7.53
2019-03-27T09:28:04.980Z,7.43
2019-03-27T09:30:33.577Z,8.00
2019-03-27T09:33:02.222Z,7.63
2019-03-27T09:35:30.737Z,7.70
2019-03-27T09:37:59.292Z,7.20
2019-03-27T09:40:27.957Z,7.90
2019-03-27T09:42:56.507Z,7.13
2019-03-27T09:45:25.129Z,6.73
2019-03-27T09:47:53.714Z,7.00
2019-03-27T09:50:22.357Z,6.37
2019-03-27T09:52:50.942Z,6.33
2019-03-27T09:55:19.504Z,5.90
2019-03-27T09:57:48.178Z,5.80
2019-03-27T10:00:19.808Z,5.77
2019-03-27T10:02:48.390Z,5.33
2019-03-27T10:05:16.959Z,5.63
2019-03-27T10:07:45.547Z,4.93
2019-03-27T10:10:14.453Z,4.67
2019-03-27T10:12:43.052Z,4.53
2019-03-27T10:15:11.945Z,4.47
2019-03-27T10:17:40.519Z,4.33
2019-03-27T10:20:09.147Z,4.40
2019-03-27T10:22:37.723Z,4.87
2019-03-27T10:25:07.839Z,4.70
2019-03-27T10:27:36.492Z,4.40
2019-03-27T10:30:07.054Z,4.63
2019-03-27T10:32:35.651Z,4.40
2019-03-27T10:35:05.586Z,4.73
2019-03-27T10:37:34.204Z,5.23
2019-03-27T10:40:02.848Z,4.20
2019-03-27T10:42:31.438Z,4.10
2019-03-27T10:45:00.008Z,4.83
2019-03-27T10:47:28.608Z,4.60
2019-03-27T10:49:57.164Z,4.43
2019-03-27T10:52:25.759Z,4.47
2019-03-27T10:54:54.320Z,4.70
2019-03-27T10:57:22.919Z,4.23
2019-03-27T10:59:51.531Z,4.50
2019-03-27T11:02:20.248Z,4.63
2019-03-27T11:04:48.909Z,4.93
2019-03-27T11:07:17.419Z,5.03
2019-03-27T11:09:45.991Z,5.10
2019-03-27T11:12:14.556Z,5.83
2019-03-27T11:14:43.136Z,5.17
2019-03-27T11:17:11.700Z,5.23
2019-03-27T11:19:40.365Z,5.30
2019-03-27T11:22:08.910Z,5.83
2019-03-27T11:24:37.495Z,5.77
2019-03-27T11:27:06.062Z,5.90
2019-03-27T11:29:34.644Z,5.20
2019-03-27T11:32:03.196Z,5.27
2019-03-27T11:34:31.779Z,5.10
2019-03-27T11:37:00.380Z,5.23
2019-03-27T11:39:29.005Z,5.37
2019-03-27T11:42:00.639Z,5.27
2019-03-27T11:44:27.876Z,5.37
2019-03-27T11:46:56.578Z,4.57
2019-03-27T11:49:25.169Z,4.10
2019-03-27T11:51:53.736Z,4.20
2019-03-27T11:54:22.333Z,3.80
2019-03-27T11:56:50.891Z,4.00
2019-03-27T11:59:19.476Z,4.00
2019-03-27T12:01:48.042Z,3.80
2019-03-27T12:04:16.634Z,4.60
2019-03-27T12:06:45.190Z,5.37
2019-03-27T12:09:15.329Z,6.40
2019-03-27T12:11:43.890Z,4.80
2019-03-27T12:14:12.770Z,5.30
2019-03-27T12:16:41.400Z,5.53
2019-03-27T12:19:13.175Z,5.47
2019-03-27T12:21:41.929Z,4.70
2019-03-27T12:24:10.587Z,4.93
2019-03-27T12:26:39.151Z,4.83
2019-03-27T12:29:07.744Z,5.20
2019-03-27T12:31:36.308Z,4.93
2019-03-27T12:34:04.974Z,5.80
2019-03-27T12:36:33.537Z,5.27
2019-03-27T12:39:02.098Z,5.37
2019-03-27T12:41:33.040Z,5.47
2019-03-27T12:44:02.584Z,6.07
2019-03-27T12:46:31.157Z,5.77
2019-03-27T12:48:59.720Z,6.00
2019-03-27T12:51:28.409Z,6.33
2019-03-27T12:53:56.959Z,6.73
2019-03-27T12:56:25.547Z,6.57
2019-03-27T12:58:54.112Z,6.97
2019-03-27T13:01:22.698Z,6.60
2019-03-27T13:03:51.346Z,6.10
2019-03-27T13:06:19.934Z,6.57
2019-03-27T13:08:49.594Z,6.53
2019-03-27T13:11:18.376Z,6.23
2019-03-27T13:13:46.930Z,6.40
2019-03-27T13:16:15.606Z,6.63
2019-03-27T13:18:44.160Z,6.43
2019-03-27T13:21:25.299Z,6.00
2019-03-27T13:23:42.974Z,5.80
2019-03-27T13:26:11.686Z,5.70
2019-03-27T13:28:48.746Z,5.97
2019-03-27T13:31:10.488Z,5.83
2019-03-27T13:33:39.042Z,5.93
2019-03-27T13:36:08.082Z,5.50
2019-03-27T13:38:36.718Z,6.03
2019-03-27T13:41:05.387Z,6.43
2019-03-27T13:43:33.946Z,6.43
2019-03-27T13:46:02.540Z,6.23
2019-03-27T13:48:31.118Z,6.60
2019-03-27T13:50:59.693Z,7.00
2019-03-27T13:53:28.260Z,6.83
2019-03-27T13:55:56.850Z,7.30
2019-03-27T13:58:25.404Z,6.93
2019-03-27T14:00:54.014Z,7.23
2019-03-27T14:03:22.650Z,6.80
2019-03-27T14:05:51.265Z,6.90
2019-03-27T14:08:19.890Z,6.87
2019-03-27T14:10:48.590Z,6.73
2019-03-27T14:13:17.184Z,7.00
2019-03-27T14:15:45.826Z,7.23
2019-03-27T14:18:14.414Z,6.97
2019-03-27T14:20:42.988Z,7.50
2019-03-27T14:23:11.583Z,7.20
2019-03-27T14:25:40.138Z,6.90
2019-03-27T14:28:08.878Z,6.70
2019-03-27T14:30:57.442Z,7.30
2019-03-27T14:33:26.108Z,7.17
2019-03-27T14:35:54.753Z,7.20
2019-03-27T14:38:23.416Z,6.63
2019-03-27T14:40:52.042Z,6.53
2019-03-27T14:43:20.708Z,6.40
2019-03-27T14:45:49.700Z,6.60
2019-03-27T14:48:18.426Z,7.03
2019-03-27T14:50:47.066Z,7.00
2019-03-27T14:53:15.655Z,6.83
2019-03-27T14:55:44.209Z,7.33
2019-03-27T14:58:12.808Z,7.30
2019-03-27T15:00:41.434Z,8.13
2019-03-27T15:03:10.023Z,8.60
2019-03-27T15:05:39.145Z,8.67
2019-03-27T15:08:07.879Z,8.90
2019-03-27T15:10:36.443Z,8.73
2019-03-27T15:13:05.111Z,9.93
2019-03-27T15:15:33.818Z,10.77
2019-03-27T15:18:02.484Z,10.20
2019-03-27T15:20:31.046Z,10.33
2019-03-27T15:22:59.737Z,9.90
2019-03-27T15:25:28.299Z,9.80
2019-03-27T15:27:56.971Z,11.53
2019-03-27T15:30:25.552Z,11.23
2019-03-27T15:32:54.151Z,11.93
2019-03-27T15:35:22.716Z,12.47
2019-03-27T15:37:51.316Z,11.30
2019-03-27T15:40:22.954Z,11.47
2019-03-27T15:42:51.807Z,11.30
2019-03-27T15:45:20.466Z,10.40
2019-03-27T15:47:49.034Z,10.30
2019-03-27T15:50:17.630Z,10.93
2019-03-27T15:52:46.194Z,10.87
2019-03-27T15:55:14.940Z,10.97
2019-03-27T15:57:43.517Z,10.20
2019-03-27T16:00:13.616Z,9.63
2019-03-27T16:02:42.181Z,9.80
2019-03-27T16:05:10.850Z,9.80
2019-03-27T16:07:39.415Z,9.07
2019-03-27T16:10:08.366Z,9.17
2019-03-27T16:12:36.915Z,9.17
2019-03-27T16:15:09.981Z,8.83
2019-03-27T16:17:38.608Z,9.43
2019-03-27T16:20:08.245Z,8.77
2019-03-27T16:22:50.061Z,8.80
2019-03-27T16:25:07.822Z,9.17
2019-03-27T16:27:36.388Z,9.13
2019-03-27T16:30:06.842Z,9.43
2019-03-27T16:32:36.281Z,9.70
2019-03-27T16:35:07.104Z,9.63
2019-03-27T16:37:35.738Z,9.27
2019-03-27T16:40:06.974Z,9.43
2019-03-27T16:42:35.532Z,9.90
2019-03-27T16:45:06.574Z,9.37
2019-03-27T16:47:35.271Z,10.00
2019-03-27T16:50:07.006Z,9.67
2019-03-27T16:52:35.592Z,11.17
2019-03-27T16:55:08.561Z,10.97
2019-03-27T16:57:37.121Z,10.07
2019-03-27T17:00:09.610Z,10.03
2019-03-27T17:02:38.174Z,10.80
2019-03-27T17:05:07.607Z,10.63
2019-03-27T17:07:36.160Z,9.80
2019-03-27T17:10:06.892Z,10.33
2019-03-27T17:12:35.453Z,10.00
2019-03-27T17:15:06.079Z,9.43
2019-03-27T17:17:34.645Z,10.67
2019-03-27T17:20:04.786Z,9.83
2019-03-27T17:22:33.357Z,9.77
2019-03-27T17:25:01.938Z,9.93
2019-03-27T17:27:30.497Z,9.80
2019-03-27T17:29:59.086Z,9.90
2019-03-27T17:32:27.682Z,10.27
2019-03-27T17:34:56.230Z,10.50
2019-03-27T17:37:24.848Z,10.13
2019-03-27T17:39:53.467Z,9.70
2019-03-27T17:42:22.065Z,10.30
2019-03-27T17:44:52.083Z,9.47
2019-03-27T17:47:20.932Z,9.97
2019-03-27T17:49:49.490Z,9.90
2019-03-27T17:52:18.100Z,10.47
2019-03-27T17:54:46.937Z,10.50
2019-03-27T17:57:15.526Z,9.60
2019-03-27T17:59:44.084Z,9.17
2019-03-27T18:02:12.744Z,8.87
2019-03-27T18:04:41.309Z,10.30
2019-03-27T18:07:09.970Z,9.30
2019-03-27T18:09:38.532Z,9.10
2019-03-27T18:12:07.588Z,8.80
2019-03-27T18:14:36.148Z,9.33
2019-03-27T18:17:04.806Z,9.47
2019-03-27T18:19:33.378Z,9.60
2019-03-27T18:22:07.456Z,8.97
2019-03-27T18:24:32.179Z,9.17
2019-03-27T18:27:00.774Z,9.60
2019-03-27T18:29:29.333Z,9.40
2019-03-27T18:31:57.909Z,9.97
2019-03-27T18:34:26.476Z,9.60
2019-03-27T18:36:58.039Z,8.97
2019-03-27T18:39:27.005Z,9.57
2019-03-27T18:41:55.640Z,9.67
2019-03-27T18:44:24.196Z,9.47
2019-03-27T18:46:52.790Z,9.03
2019-03-27T18:49:21.334Z,9.63
2019-03-27T18:51:50.012Z,9.97
2019-03-27T18:54:18.566Z,10.10
2019-03-27T18:56:47.136Z,9.43
2019-03-27T18:59:15.734Z,9.77
2019-03-27T19:01:44.287Z,10.27
2019-03-27T19:04:12.872Z,10.00
2019-03-27T19:06:41.528Z,8.80
2019-03-27T19:09:10.218Z,9.40
2019-03-27T19:11:38.863Z,9.13
2019-03-27T19:14:07.463Z,9.13
2019-03-27T19:16:36.028Z,9.20
2019-03-27T19:19:04.757Z,8.30
2019-03-27T19:21:33.320Z,9.07
2019-03-27T19:24:13.267Z,9.47
2019-03-27T19:26:32.135Z,9.27
2019-03-27T19:29:00.786Z,9.63
2019-03-27T19:31:29.352Z,8.47
2019-03-27T19:33:57.944Z,7.73
2019-03-27T19:36:26.508Z,8.90
2019-03-27T19:38:55.094Z,8.87
2019-03-27T19:41:23.669Z,9.17
2019-03-27T19:43:52.282Z,10.47
2019-03-27T19:46:20.846Z,10.43
2019-03-27T19:48:49.428Z,9.67
2019-03-27T19:51:18.055Z,9.10
2019-03-27T19:53:46.642Z,8.80
2019-03-27T19:56:15.217Z,9.00
2019-03-27T19:58:43.834Z,9.17
2019-03-27T20:01:12.408Z,9.33
2019-03-27T20:03:41.172Z,9.07
2019-03-27T20:06:09.806Z,8.70
2019-03-27T20:08:38.318Z,9.67
2019-03-27T20:11:06.966Z,9.37
2019-03-27T20:13:35.634Z,9.07
2019-03-27T20:16:04.196Z,9.53
2019-03-27T20:18:32.827Z,9.17
2019-03-27T20:21:01.410Z,9.80
2019-03-27T20:23:30.045Z,9.80
2019-03-27T20:25:58.634Z,9.70
2019-03-27T20:28:27.208Z,10.20
2019-03-27T20:30:55.807Z,10.27
2019-03-27T20:33:24.359Z,9.57
2019-03-27T20:35:53.017Z,9.27
2019-03-27T20:38:21.589Z,9.07
2019-03-27T20:40:50.162Z,9.03
2019-03-27T20:43:18.726Z,8.70
2019-03-27T20:45:47.321Z,8.33
2019-03-27T20:48:15.886Z,8.57
2019-03-27T20:50:44.476Z,8.80
2019-03-27T20:53:13.041Z,8.27
2019-03-27T20:55:41.622Z,9.10
2019-03-27T20:58:10.181Z,9.03
2019-03-27T21:00:38.778Z,8.20
2019-03-27T21:03:07.336Z,8.90
2019-03-27T21:05:35.943Z,9.70
2019-03-27T21:08:04.595Z,9.00
2019-03-27T21:10:33.330Z,10.13
2019-03-27T21:13:01.894Z,10.83
2019-03-27T21:15:30.504Z,10.37
2019-03-27T21:17:59.080Z,26.20
2019-03-27T21:20:27.682Z,13.73
2019-03-27T21:22:56.250Z,11.23
2019-03-27T21:25:24.841Z,11.80
2019-03-27T21:27:53.713Z,10.90
2019-03-27T21:30:22.331Z,10.93
2019-03-27T21:32:50.921Z,10.87
2019-03-27T21:35:19.526Z,11.03
2019-03-27T21:37:48.121Z,10.77
2019-03-27T21:40:17.587Z,10.67
2019-03-27T21:42:46.202Z,11.03
2019-03-27T21:45:15.119Z,11.70
2019-03-27T21:47:43.690Z,11.33
2019-03-27T21:50:12.517Z,12.13
2019-03-27T21:52:41.141Z,12.67
2019-03-27T21:55:22.029Z,12.03
2019-03-27T21:57:40.254Z,12.73
2019-03-27T22:00:09.780Z,12.60
2019-03-27T22:02:38.535Z,11.70
2019-03-27T22:05:07.192Z,11.50
2019-03-27T22:07:35.817Z,11.77
2019-03-27T22:10:08.281Z,12.37
2019-03-27T22:12:38.442Z,12.23
2019-03-27T22:15:08.303Z,13.53
2019-03-27T22:17:36.941Z,12.10
2019-03-27T22:20:07.336Z,12.60
2019-03-27T22:22:35.944Z,12.97
2019-03-27T22:25:07.277Z,12.00
2019-03-27T22:27:35.887Z,11.83
2019-03-27T22:30:06.516Z,13.77
2019-03-27T22:32:35.130Z,12.13
2019-03-27T22:35:05.763Z,13.97
2019-03-27T22:37:34.387Z,15.13
2019-03-27T22:40:06.450Z,14.20
2019-03-27T22:42:35.220Z,13.60
2019-03-27T22:45:05.155Z,14.13
2019-03-27T22:47:33.775Z,13.50
2019-03-27T22:50:02.487Z,13.63
2019-03-27T22:52:31.172Z,13.87
2019-03-27T22:54:59.761Z,13.13
2019-03-27T22:57:28.375Z,12.17
2019-03-27T22:59:57.039Z,13.53
2019-03-27T23:02:25.659Z,14.10
2019-03-27T23:04:57.232Z,14.30
2019-03-27T23:07:25.857Z,14.93
2019-03-27T23:09:54.447Z,12.77
2019-03-27T23:12:23.075Z,12.67
2019-03-27T23:14:51.729Z,13.20
2019-03-27T23:17:20.357Z,13.17
2019-03-27T23:19:51.338Z,13.27
2019-03-27T23:22:19.227Z,13.73
2019-03-27T23:24:47.848Z,13.17
2019-03-27T23:27:16.435Z,12.50
2019-03-27T23:29:45.059Z,13.63
2019-03-27T23:32:13.646Z,13.33
2019-03-27T23:34:42.258Z,13.40
2019-03-27T23:37:10.853Z,14.00
2019-03-27T23:39:39.481Z,14.47
2019-03-27T23:42:08.133Z,16.07
2019-03-27T23:44:36.752Z,13.80
2019-03-27T23:47:05.416Z,14.93
2019-03-27T23:49:33.988Z,14.03
2019-03-27T23:52:02.627Z,16.93
2019-03-27T23:54:31.239Z,16.47
2019-03-27T23:56:59.825Z,14.27
2019-03-27T23:59:28.447Z,14.30
